KOJC/OJC METAR and TAF weather

Enter ICAO airport designator
Station Type Date Time Source
KOJC METAR 2023/02/05 12:53 UTC NOAA

KOJC 051253Z 25004KT 10SM CLR 00/M03 A3008 RMK AO2 SLP191 T00001033


Station Type Date Time Source
KOJC Decoded METAR 2023/02/05 12:53 UTC NOAA

OLATHE JOHNSON CO EXECUTIVE, KS, United States (KOJC) 38-50N 94-44W 326M
Feb 05, 2023 - 07:53 AM EST / 2023.02.05 1253 UTC
Wind: from the WSW (250 degrees) at 5 MPH (4 KT):0
Visibility: 10 mile(s):0
Sky conditions: clear
Temperature: 32.0 F (0.0 C)
Windchill: 26 F (-3 C):1
Dew Point: 26.1 F (-3.3 C)
Relative Humidity: 78%
Pressure (altimeter): 30.08 in. Hg (1018 hPa)
ob: KOJC 051253Z 25004KT 10SM CLR 00/M03 A3008 RMK AO2 SLP191 T00001033
cycle: 13

Station Type Date Time Source
KOJC TAF UTC NOAA

Error!

Example: see airport list